Time;durP1;ratioP1;P1;durP2;ratioP2;P2;SDS_P1;SDS_P2;PMS_P1;PMS_P2;Temp;Humidity;BMP_temperature;BMP_pressure;BME280_temperature;BME280_humidity;BME280_pressure;Samples;Min_cycle;Max_cycle;Signal;HPM_P1;HPM_P2
2022/11/18 00:02:27;;;;;;;9.27;3.47;;;10.30;1.00;;;;;;6199171;23;20416;-85
2022/11/18 00:05:00;;;;;;;5.33;2.40;;;10.40;1.00;;;;;;6225278;23;20400;-86
2022/11/18 00:07:26;;;;;;;4.70;2.37;;;10.40;1.00;;;;;;6226209;23;20356;-86
2022/11/18 00:10:01;;;;;;;6.53;2.50;;;10.40;1.00;;;;;;6225374;23;20449;-86
2022/11/18 00:15:13;;;;;;;8.50;2.60;;;10.30;1.00;;;;;;6233216;22;20372;-85
2022/11/18 00:17:39;;;;;;;6.13;2.60;;;10.30;1.00;;;;;;6218244;23;20845;-85
2022/11/18 00:20:05;;;;;;;5.90;2.20;;;10.30;1.00;;;;;;6220538;23;20229;-84
2022/11/18 00:22:33;;;;;;;9.13;2.40;;;10.30;1.00;;;;;;6220130;23;20248;-85
2022/11/18 00:24:58;;;;;;;5.97;2.13;;;10.30;1.00;;;;;;6219906;23;20377;-85
2022/11/18 00:27:26;;;;;;;5.00;2.63;;;10.30;1.00;;;;;;6220551;23;20392;-85
2022/11/18 00:29:51;;;;;;;4.53;2.10;;;10.30;1.00;;;;;;6243269;23;20177;-87
2022/11/18 00:32:17;;;;;;;4.77;2.20;;;10.30;1.00;;;;;;6219417;23;20718;-84
2022/11/18 00:34:42;;;;;;;5.77;2.73;;;10.30;1.00;;;;;;6217377;23;20614;-84
2022/11/18 00:37:08;;;;;;;4.97;2.70;;;10.30;1.00;;;;;;6219521;23;20154;-84
2022/11/18 00:39:33;;;;;;;10.67;2.60;;;10.30;1.00;;;;;;6218415;23;20164;-84
2022/11/18 00:44:43;;;;;;;5.03;2.80;;;10.30;1.00;;;;;;6217163;23;20169;-85
2022/11/18 00:47:08;;;;;;;6.70;2.53;;;10.30;1.00;;;;;;6217264;23;20562;-85
2022/11/18 00:49:34;;;;;;;6.97;2.80;;;10.20;1.00;;;;;;6214187;23;20161;-86
2022/11/18 00:52:09;;;;;;;9.70;2.30;;;10.20;1.80;;;;;;6217937;23;20268;-83
2022/11/18 00:54:59;;;;;;;10.13;3.50;;;10.20;32.30;;;;;;6217737;23;20232;-85
2022/11/18 00:57:32;;;;;;;11.90;2.97;;;10.10;76.20;;;;;;6218657;23;20384;-86
2022/11/18 01:03:10;;;;;;;5.63;2.37;;;10.10;99.90;;;;;;6216959;23;20475;-84
2022/11/18 01:05:39;;;;;;;6.20;3.00;;;10.10;99.90;;;;;;6217114;23;20361;-84
2022/11/18 01:08:09;;;;;;;7.73;3.03;;;10.10;98.80;;;;;;6217244;23;20384;-85
2022/11/18 01:10:38;;;;;;;5.27;2.30;;;10.00;99.90;;;;;;6216483;23;20491;-84
2022/11/18 01:13:21;;;;;;;9.33;3.93;;;10.00;99.90;;;;;;6217953;23;20388;-84
2022/11/18 01:15:53;;;;;;;5.13;2.63;;;9.90;99.90;;;;;;6218129;23;20362;-84
2022/11/18 01:18:24;;;;;;;6.10;2.90;;;9.90;99.90;;;;;;6218026;23;20734;-84
2022/11/18 01:20:50;;;;;;;5.80;2.40;;;9.90;99.90;;;;;;6217539;23;20432;-86
2022/11/18 01:23:17;;;;;;;6.90;2.97;;;9.90;99.90;;;;;;6216284;23;20447;-84
2022/11/18 01:25:45;;;;;;;5.63;2.10;;;9.90;99.90;;;;;;6217605;23;20369;-84
2022/11/18 01:28:11;;;;;;;8.20;3.30;;;9.90;99.90;;;;;;6218479;23;20372;-85
2022/11/18 01:30:40;;;;;;;6.80;3.30;;;9.90;99.90;;;;;;6216412;23;20809;-84
2022/11/18 01:33:13;;;;;;;10.07;4.27;;;9.90;99.90;;;;;;6217403;23;20373;-84
2022/11/18 01:35:46;;;;;;;11.00;2.57;;;10.00;99.90;;;;;;6193896;23;20412;-85
2022/11/18 01:38:13;;;;;;;5.93;2.80;;;10.00;99.90;;;;;;6218128;23;20827;-86
2022/11/18 01:40:40;;;;;;;6.47;3.13;;;10.00;99.90;;;;;;6218254;23;20475;-84
2022/11/18 01:43:12;;;;;;;8.00;3.17;;;10.00;99.90;;;;;;6217562;23;20922;-85
2022/11/18 01:45:42;;;;;;;10.23;2.77;;;10.00;99.90;;;;;;6216756;23;20353;-84
2022/11/18 01:48:20;;;;;;;5.60;2.60;;;10.00;99.90;;;;;;6217573;23;20408;-84
2022/11/18 01:50:53;;;;;;;8.50;2.67;;;10.00;99.90;;;;;;6218952;23;20419;-84
2022/11/18 01:53:30;;;;;;;4.33;2.30;;;10.00;99.90;;;;;;6190291;23;20392;-83
2022/11/18 01:56:02;;;;;;;13.20;3.93;;;10.00;99.90;;;;;;6216635;23;20368;-85
2022/11/18 01:58:38;;;;;;;4.90;2.70;;;10.00;99.90;;;;;;6217831;23;20384;-84
2022/11/18 02:01:06;;;;;;;4.80;2.67;;;10.00;99.90;;;;;;6216657;23;20411;-84
2022/11/18 02:03:33;;;;;;;5.73;2.87;;;10.00;99.90;;;;;;6217858;23;20435;-84
2022/11/18 02:06:00;;;;;;;8.00;2.93;;;10.00;99.90;;;;;;6217637;23;20870;-84
2022/11/18 02:08:26;;;;;;;6.90;2.67;;;10.00;99.90;;;;;;6191388;23;20866;-84
2022/11/18 02:10:52;;;;;;;6.03;2.73;;;10.00;99.90;;;;;;6217828;23;20403;-84
2022/11/18 02:13:18;;;;;;;7.90;2.50;;;10.00;99.90;;;;;;6218829;23;20665;-87
2022/11/18 02:19:01;;;;;;;7.07;3.53;;;9.90;99.90;;;;;;6223652;23;20167;-84
2022/11/18 02:22:07;;;;;;;4.03;2.47;;;9.90;99.90;;;;;;6222766;23;20451;-84
2022/11/18 02:24:41;;;;;;;4.57;2.40;;;9.90;99.90;;;;;;6219627;23;20685;-85
2022/11/18 02:27:58;;;;;;;4.67;2.50;;;9.90;99.90;;;;;;6219176;23;20424;-85
2022/11/18 02:30:24;;;;;;;3.77;2.20;;;9.90;99.90;;;;;;6191571;23;20491;-86
2022/11/18 02:33:03;;;;;;;4.90;2.30;;;9.80;99.90;;;;;;6219622;23;20377;-84
2022/11/18 02:35:44;;;;;;;4.70;2.33;;;9.80;99.90;;;;;;6220112;23;20192;-86
2022/11/18 02:38:20;;;;;;;15.37;2.90;;;9.80;99.90;;;;;;6220136;23;20387;-85
2022/11/18 02:40:51;;;;;;;4.07;2.77;;;9.80;99.90;;;;;;6211656;23;20432;-86
2022/11/18 02:43:26;;;;;;;5.57;3.07;;;9.80;99.90;;;;;;6184580;23;20470;-86
2022/11/18 02:45:59;;;;;;;5.33;3.10;;;9.80;99.90;;;;;;6187291;23;20365;-86
2022/11/18 02:48:28;;;;;;;6.90;2.70;;;9.80;99.90;;;;;;6186973;23;20369;-86
2022/11/18 02:50:57;;;;;;;7.87;2.97;;;9.80;99.90;;;;;;6213656;23;20403;-87
2022/11/18 02:53:26;;;;;;;8.40;2.63;;;9.80;99.90;;;;;;6190427;23;20392;-85
2022/11/18 02:55:58;;;;;;;8.33;2.90;;;9.80;99.90;;;;;;6215881;23;20758;-82
2022/11/18 02:58:30;;;;;;;6.77;3.10;;;9.80;99.90;;;;;;6220047;23;20362;-85
2022/11/18 03:01:39;;;;;;;5.67;2.93;;;9.80;99.90;;;;;;6220127;23;20922;-85
2022/11/18 03:04:04;;;;;;;6.03;2.70;;;9.80;99.90;;;;;;6213657;23;20411;-85
2022/11/18 03:06:37;;;;;;;8.93;3.27;;;9.80;99.90;;;;;;6198169;23;20372;-84
2022/11/18 03:09:32;;;;;;;12.07;3.00;;;9.80;99.90;;;;;;6218086;23;20227;-84
2022/11/18 03:12:25;;;;;;;5.60;2.70;;;9.80;99.90;;;;;;6217881;23;20496;-86
2022/11/18 03:15:08;;;;;;;9.90;5.00;;;9.80;99.90;;;;;;6218979;23;20420;-85
2022/11/18 03:17:59;;;;;;;10.60;3.47;;;9.80;99.90;;;;;;6219785;23;20353;-86
2022/11/18 03:20:35;;;;;;;8.57;3.23;;;9.80;99.90;;;;;;6219930;23;20769;-85
2022/11/18 03:23:13;;;;;;;6.90;3.57;;;9.80;99.90;;;;;;6220056;23;20433;-84
2022/11/18 03:25:50;;;;;;;6.43;2.87;;;9.80;99.90;;;;;;6219489;23;20364;-86
2022/11/18 03:28:35;;;;;;;6.50;2.97;;;9.80;99.90;;;;;;6218935;23;20372;-84
2022/11/18 03:31:17;;;;;;;6.80;2.80;;;9.80;99.90;;;;;;6217439;23;20401;-85
2022/11/18 03:33:58;;;;;;;5.77;2.70;;;9.90;99.90;;;;;;6220269;23;21110;-84
2022/11/18 03:36:28;;;;;;;8.93;3.10;;;9.90;99.90;;;;;;6221712;23;20388;-85
2022/11/18 03:38:57;;;;;;;5.70;2.83;;;9.90;99.90;;;;;;6221374;23;20381;-85
2022/11/18 03:41:28;;;;;;;4.83;2.87;;;9.90;99.90;;;;;;6221609;23;20396;-85
2022/11/18 03:44:03;;;;;;;5.37;2.60;;;9.90;99.90;;;;;;6221331;23;20369;-85
2022/11/18 03:46:42;;;;;;;5.27;2.50;;;9.90;99.90;;;;;;6196008;23;20826;-86
2022/11/18 03:49:17;;;;;;;8.10;2.50;;;9.90;99.90;;;;;;6221147;23;20392;-84
2022/11/18 03:51:48;;;;;;;5.80;2.10;;;9.90;99.90;;;;;;6230357;23;20392;-85
2022/11/18 03:54:28;;;;;;;7.63;2.70;;;10.00;99.90;;;;;;6239129;23;20369;-85
2022/11/18 03:57:20;;;;;;;5.23;2.00;;;10.00;99.90;;;;;;6231309;23;20365;-83
2022/11/18 04:00:01;;;;;;;5.67;2.90;;;10.00;99.90;;;;;;6214786;23;20889;-83
2022/11/18 04:02:28;;;;;;;4.10;1.70;;;10.00;99.90;;;;;;6215966;23;20411;-85
2022/11/18 04:04:55;;;;;;;6.07;2.13;;;10.00;99.90;;;;;;6215411;23;20381;-85
2022/11/18 04:07:56;;;;;;;6.17;2.07;;;10.10;99.90;;;;;;6188389;23;20388;-84
2022/11/18 04:10:30;;;;;;;8.03;1.90;;;10.10;99.90;;;;;;6215085;23;20766;-84
2022/11/18 04:13:14;;;;;;;8.03;2.37;;;10.10;99.90;;;;;;6215936;23;20361;-84
2022/11/18 04:15:41;;;;;;;6.17;1.80;;;10.10;99.90;;;;;;6215781;23;20380;-83
2022/11/18 04:18:08;;;;;;;3.40;1.87;;;10.10;99.90;;;;;;6215671;23;20401;-84
2022/11/18 04:20:36;;;;;;;6.53;2.00;;;10.20;99.90;;;;;;6215714;23;20879;-84
2022/11/18 04:23:05;;;;;;;2.77;1.83;;;10.20;99.90;;;;;;6188828;23;20910;-84
2022/11/18 04:25:30;;;;;;;6.07;2.30;;;10.20;99.90;;;;;;6188029;23;20831;-83
2022/11/18 04:27:56;;;;;;;3.97;1.90;;;10.20;99.90;;;;;;6215364;23;20378;-84
2022/11/18 04:30:26;;;;;;;3.47;2.37;;;10.20;99.90;;;;;;6215208;23;20221;-84
2022/11/18 04:32:57;;;;;;;3.70;2.13;;;10.20;99.90;;;;;;6216164;23;20217;-83
2022/11/18 04:35:32;;;;;;;;;;;;;;;;;;;;;
2022/11/18 04:37:58;;;;;;;7.03;1.57;;;10.20;99.90;;;;;;6215801;23;20449;-83
2022/11/18 04:40:23;;;;;;;10.30;2.43;;;10.20;99.90;;;;;;6214265;23;20433;-84
2022/11/18 04:42:49;;;;;;;7.53;2.07;;;10.20;99.90;;;;;;6214948;23;20242;-83
2022/11/18 04:45:14;;;;;;;3.40;2.00;;;10.20;99.90;;;;;;6213018;23;20253;-84
2022/11/18 04:47:42;;;;;;;6.53;2.57;;;10.20;99.90;;;;;;6218281;23;20153;-84
2022/11/18 04:50:10;;;;;;;5.90;2.10;;;10.20;99.90;;;;;;6190240;23;20184;-84
2022/11/18 04:52:36;;;;;;;11.60;2.17;;;10.20;99.90;;;;;;6216709;23;20377;-84
2022/11/18 04:55:04;;;;;;;6.47;2.33;;;10.20;99.90;;;;;;6216802;23;20391;-84
2022/11/18 04:57:29;;;;;;;6.00;2.30;;;10.20;99.90;;;;;;6217669;23;20176;-85
2022/11/18 04:59:55;;;;;;;4.17;2.03;;;10.30;99.90;;;;;;6217691;23;20377;-85
2022/11/18 05:02:23;;;;;;;4.27;2.07;;;10.20;99.90;;;;;;6190026;23;20188;-85
2022/11/18 05:04:51;;;;;;;4.37;2.30;;;10.20;99.90;;;;;;6191241;23;20509;-84
2022/11/18 05:07:16;;;;;;;5.50;1.70;;;10.30;99.90;;;;;;6218638;23;20408;-84
2022/11/18 05:09:44;;;;;;;4.80;1.67;;;10.30;99.90;;;;;;6217614;23;20381;-84
2022/11/18 05:14:56;;;;;;;4.37;2.00;;;10.30;99.90;;;;;;6218160;23;20360;-85
2022/11/18 05:17:21;;;;;;;9.57;2.23;;;10.30;99.90;;;;;;6219197;23;20724;-84
2022/11/18 05:19:49;;;;;;;5.40;1.97;;;10.30;99.90;;;;;;6218754;23;20168;-84
2022/11/18 05:22:15;;;;;;;3.70;2.00;;;10.20;99.90;;;;;;6219405;23;20181;-85
2022/11/18 05:24:45;;;;;;;3.70;1.87;;;10.20;99.90;;;;;;6188107;23;20432;-85
2022/11/18 05:27:19;;;;;;;5.20;2.07;;;10.20;99.90;;;;;;6215905;23;20428;-85
2022/11/18 05:29:44;;;;;;;6.20;2.03;;;10.20;99.90;;;;;;6214313;23;20415;-82
2022/11/18 05:32:12;;;;;;;5.63;2.57;;;10.20;99.90;;;;;;6214860;23;20824;-83
2022/11/18 05:34:47;;;;;;;8.33;2.10;;;10.20;99.90;;;;;;6214310;23;20164;-83
2022/11/18 05:37:13;;;;;;;5.30;2.10;;;10.20;99.90;;;;;;6214392;23;20421;-83
2022/11/18 05:39:41;;;;;;;7.83;2.47;;;10.20;99.90;;;;;;6190467;23;20389;-83
2022/11/18 05:44:51;;;;;;;3.87;2.03;;;10.20;99.90;;;;;;6218237;23;20351;-85
2022/11/18 05:47:24;;;;;;;3.60;1.70;;;10.10;99.90;;;;;;6190450;23;20385;-85
2022/11/18 05:49:50;;;;;;;8.20;2.37;;;10.10;99.90;;;;;;6219212;23;20142;-85
2022/11/18 05:52:20;;;;;;;5.03;1.80;;;10.10;99.90;;;;;;6218451;23;20389;-84
2022/11/18 05:54:49;;;;;;;6.37;2.27;;;10.10;99.90;;;;;;6218449;23;20149;-84
2022/11/18 05:57:14;;;;;;;6.10;2.10;;;10.10;99.90;;;;;;6219673;23;20814;-86
2022/11/18 05:59:42;;;;;;;4.00;2.33;;;10.10;99.90;;;;;;6218723;23;20381;-85
2022/11/18 06:02:23;;;;;;;4.43;2.23;;;10.10;99.90;;;;;;6191447;23;20221;-85
2022/11/18 06:04:57;;;;;;;6.00;2.23;;;10.10;99.90;;;;;;6218094;23;20618;-84
2022/11/18 06:07:34;;;;;;;3.47;1.67;;;10.10;99.90;;;;;;6219684;23;20352;-84
2022/11/18 06:10:00;;;;;;;3.00;1.60;;;10.10;99.90;;;;;;6215870;23;20364;-84
2022/11/18 06:12:36;;;;;;;4.60;2.07;;;10.10;99.90;;;;;;6218418;23;20438;-84
2022/11/18 06:15:31;;;;;;;4.53;2.63;;;10.10;99.90;;;;;;6215478;23;20905;-84
2022/11/18 06:18:01;;;;;;;8.83;2.87;;;10.10;99.90;;;;;;6209922;23;20393;-84
2022/11/18 06:20:30;;;;;;;6.77;2.60;;;10.10;99.90;;;;;;6189448;23;20408;-83
2022/11/18 06:22:57;;;;;;;3.70;2.10;;;10.00;99.90;;;;;;6191825;23;20460;-84
2022/11/18 06:25:23;;;;;;;3.00;2.27;;;10.00;99.90;;;;;;6218722;23;20380;-85
2022/11/18 06:27:51;;;;;;;6.93;4.80;;;10.00;99.90;;;;;;6189550;23;20480;-84
2022/11/18 06:30:21;;;;;;;6.03;3.90;;;10.00;99.90;;;;;;6217671;23;20397;-84
2022/11/18 06:32:47;;;;;;;4.83;4.10;;;10.00;99.90;;;;;;6217033;23;20799;-84
2022/11/18 06:35:15;;;;;;;7.00;3.30;;;9.90;99.90;;;;;;6218428;23;20380;-83
2022/11/18 06:37:41;;;;;;;5.83;3.70;;;9.90;99.90;;;;;;6191791;23;20501;-87
2022/11/18 06:40:07;;;;;;;4.33;2.77;;;10.00;99.90;;;;;;6217269;23;20404;-84
2022/11/18 06:45:17;;;;;;;4.20;2.87;;;9.90;99.90;;;;;;6217511;23;20368;-83
2022/11/18 06:47:42;;;;;;;3.60;2.47;;;9.90;99.90;;;;;;6191229;23;20384;-84
2022/11/18 06:50:08;;;;;;;6.97;2.80;;;9.90;99.90;;;;;;6191731;23;20199;-85
2022/11/18 06:52:34;;;;;;;5.63;2.47;;;9.80;99.90;;;;;;6218480;23;20237;-85
2022/11/18 06:54:59;;;;;;;7.70;3.10;;;9.90;99.90;;;;;;6218052;23;20149;-84
2022/11/18 06:57:27;;;;;;;3.43;2.77;;;9.80;99.90;;;;;;6192523;23;20515;-86
2022/11/18 06:59:53;;;;;;;5.80;2.67;;;9.80;99.90;;;;;;6220846;23;20158;-86
2022/11/18 07:02:21;;;;;;;5.37;2.70;;;9.70;99.90;;;;;;6218587;23;20478;-84
2022/11/18 07:04:51;;;;;;;12.00;3.07;;;9.80;99.90;;;;;;6220170;23;20192;-85
2022/11/18 07:07:17;;;;;;;4.73;2.80;;;9.80;99.90;;;;;;6220274;23;20404;-85
2022/11/18 07:09:44;;;;;;;4.80;3.50;;;9.80;99.90;;;;;;6194887;23;20771;-84
2022/11/18 07:12:10;;;;;;;4.40;3.47;;;9.80;99.90;;;;;;6194435;23;20228;-85
2022/11/18 07:14:38;;;;;;;6.80;2.80;;;9.80;99.90;;;;;;6220513;23;20854;-85
2022/11/18 07:17:06;;;;;;;6.60;2.87;;;9.80;99.90;;;;;;6219181;23;20236;-86
2022/11/18 07:19:34;;;;;;;3.30;2.60;;;9.80;99.90;;;;;;6195151;23;20392;-85
2022/11/18 07:22:04;;;;;;;6.30;3.20;;;9.80;99.90;;;;;;6195124;23;20478;-85
2022/11/18 07:24:30;;;;;;;6.40;2.83;;;9.90;99.90;;;;;;6195623;23;20480;-85
2022/11/18 07:27:04;;;;;;;11.80;2.90;;;9.90;99.90;;;;;;6221589;23;20365;-85
2022/11/18 07:29:32;;;;;;;7.10;2.97;;;9.90;99.90;;;;;;6221773;23;20130;-84
2022/11/18 07:32:09;;;;;;;5.20;3.20;;;10.00;99.90;;;;;;6205258;23;20424;-84
2022/11/18 07:34:55;;;;;;;9.03;3.40;;;10.10;94.90;;;;;;6231551;23;20367;-84
2022/11/18 07:37:30;;;;;;;5.37;3.00;;;10.30;1.00;;;;;;6193954;23;20488;-83
2022/11/18 07:40:03;;;;;;;6.10;2.90;;;10.40;1.00;;;;;;6218672;23;20815;-83
2022/11/18 07:42:59;;;;;;;6.17;3.10;;;10.60;1.00;;;;;;6191669;23;20528;-83
2022/11/18 07:45:39;;;;;;;8.10;2.70;;;10.90;99.90;;;;;;6218288;23;20436;-83
2022/11/18 07:48:20;;;;;;;5.03;3.23;;;11.50;32.20;;;;;;6192145;23;20740;-82
2022/11/18 07:50:48;;;;;;;4.10;3.00;;;12.70;1.00;;;;;;6218316;23;20392;-83
2022/11/18 07:56:06;;;;;;;8.53;3.20;;;14.10;11.50;;;;;;6207868;23;20408;-84
2022/11/18 07:58:57;;;;;;;4.67;2.73;;;14.00;99.90;;;;;;6192382;23;20416;-83
2022/11/18 08:01:31;;;;;;;4.67;2.50;;;13.70;99.90;;;;;;6218097;23;20587;-83
2022/11/18 08:04:21;;;;;;;5.67;3.50;;;13.40;99.90;;;;;;6192563;23;20404;-84
2022/11/18 08:06:55;;;;;;;4.20;2.70;;;13.30;99.90;;;;;;6217708;23;20414;-83
2022/11/18 08:09:38;;;;;;;5.77;2.93;;;13.40;99.90;;;;;;6218664;23;20358;-83
2022/11/18 08:12:22;;;;;;;4.20;2.47;;;14.10;1.00;;;;;;6191441;23;20405;-84
2022/11/18 08:18:41;;;;;;;5.37;2.80;;;14.70;99.90;;;;;;6212910;23;20384;-83
2022/11/18 08:21:27;;;;;;;6.57;2.60;;;14.60;93.00;;;;;;6191237;23;20427;-83
2022/11/18 08:24:16;;;;;;;5.10;2.70;;;15.30;25.70;;;;;;6192778;23;20377;-83
2022/11/18 08:26:59;;;;;;;4.50;2.97;;;16.40;1.00;;;;;;6217987;23;20703;-83
2022/11/18 08:29:44;;;;;;;4.70;2.03;;;17.30;1.00;;;;;;6217590;23;20364;-83
2022/11/18 08:32:33;;;;;;;9.93;2.63;;;18.60;1.00;;;;;;6218392;23;20366;-83
2022/11/18 08:35:25;;;;;;;4.93;2.10;;;19.90;99.90;;;;;;6218718;23;20357;-83
2022/11/18 08:38:02;;;;;;;9.97;2.50;;;21.40;99.90;;;;;;6216808;23;20380;-83
2022/11/18 08:40:35;;;;;;;3.17;2.57;;;22.20;99.90;;;;;;6189961;23;20536;-83
2022/11/18 08:43:27;;;;;;;4.13;1.97;;;23.00;99.90;;;;;;6217584;23;20464;-84
2022/11/18 08:45:59;;;;;;;6.30;2.07;;;23.80;99.90;;;;;;6192829;23;20384;-85
2022/11/18 08:48:46;;;;;;;5.27;2.00;;;24.70;99.90;;;;;;6218943;23;20381;-84
2022/11/18 08:51:40;;;;;;;4.90;2.43;;;25.50;99.90;;;;;;6216909;23;20397;-84
2022/11/18 08:54:19;;;;;;;7.13;2.23;;;26.00;99.90;;;;;;6192298;23;20885;-84
2022/11/18 08:57:14;;;;;;;4.40;1.80;;;26.20;99.90;;;;;;6194939;23;20479;-81
2022/11/18 08:59:54;;;;;;;7.17;3.00;;;26.50;99.90;;;;;;6191666;23;20413;-81
2022/11/18 09:05:58;;;;;;;5.37;1.87;;;27.00;99.90;;;;;;6199970;23;20396;-83
2022/11/18 09:08:28;;;;;;;6.00;2.47;;;26.70;99.90;;;;;;6201926;23;20384;-83
2022/11/18 09:14:17;;;;;;;4.40;2.60;;;25.20;99.90;;;;;;6202628;23;20914;-82
2022/11/18 09:16:46;;;;;;;4.63;1.80;;;23.90;99.90;;;;;;6213016;23;20552;-83
2022/11/18 09:19:15;;;;;;;3.50;1.50;;;22.80;99.90;;;;;;6216273;23;20715;-83
2022/11/18 09:21:43;;;;;;;3.73;2.10;;;21.80;99.90;;;;;;6188755;23;20440;-83
2022/11/18 09:24:47;;;;;;;;;;;;;;;;;;;;;
2022/11/18 09:27:26;;;;;;;7.83;2.20;;;20.10;99.90;;;;;;6219829;23;20418;-84
2022/11/18 09:29:59;;;;;;;4.40;2.10;;;19.10;99.90;;;;;;6221529;23;20361;-83
2022/11/18 09:32:31;;;;;;;7.30;2.47;;;18.50;99.90;;;;;;6222237;23;20360;-84
2022/11/18 09:35:25;;;;;;;6.30;2.30;;;18.00;99.90;;;;;;6193376;23;20414;-82
2022/11/18 09:38:11;;;;;;;5.00;2.23;;;17.50;99.90;;;;;;6212749;23;20417;-82
2022/11/18 09:41:23;;;;;;;5.10;1.90;;;17.10;99.90;;;;;;6217422;23;20476;-83
2022/11/18 09:44:26;;;;;;;9.23;2.90;;;16.70;99.90;;;;;;6158439;23;20384;-82
2022/11/18 09:47:27;;;;;;;4.43;2.43;;;16.30;99.90;;;;;;6190499;23;20451;-83
2022/11/18 09:50:34;;;;;;;6.97;2.00;;;16.10;99.90;;;;;;6216802;23;20848;-83
2022/11/18 09:53:20;;;;;;;8.70;2.30;;;15.90;99.90;;;;;;6195531;23;20364;-84
2022/11/18 09:56:32;;;;;;;6.30;2.17;;;15.80;99.90;;;;;;6220552;23;20488;-83
2022/11/18 09:59:20;;;;;;;;;;;;;;;;;;;;;
2022/11/18 10:01:47;;;;;;;7.50;2.00;;;15.80;99.90;;;;;;6219107;23;20507;-83
2022/11/18 10:04:39;;;;;;;10.53;2.20;;;15.80;99.90;;;;;;6219681;23;20899;-83
2022/11/18 10:07:56;;;;;;;6.43;2.80;;;15.90;99.90;;;;;;6218617;23;20362;-83
2022/11/18 10:11:04;;;;;;;;;;;;;;;;;;;;;
2022/11/18 10:14:16;;;;;;;3.93;2.10;;;15.90;99.90;;;;;;6161156;23;20418;-83
2022/11/18 10:16:56;;;;;;;4.63;1.83;;;15.80;99.90;;;;;;6218042;23;20362;-82
2022/11/18 10:19:40;;;;;;;4.17;1.83;;;15.70;99.90;;;;;;6218541;23;20831;-83
2022/11/18 10:22:29;;;;;;;9.07;2.13;;;15.80;99.90;;;;;;6218349;23;20515;-83
2022/11/18 10:24:56;;;;;;;8.10;3.17;;;15.70;99.90;;;;;;6219141;23;20368;-83
2022/11/18 10:27:25;;;;;;;4.73;2.67;;;15.70;99.90;;;;;;6217460;23;20377;-84
2022/11/18 10:29:55;;;;;;;10.93;3.20;;;15.60;99.90;;;;;;6218779;23;20377;-83
2022/11/18 10:32:21;;;;;;;4.40;2.10;;;15.40;99.90;;;;;;6219589;23;20384;-83
2022/11/18 10:34:50;;;;;;;6.23;2.17;;;15.30;99.90;;;;;;6217850;23;20373;-83
2022/11/18 10:37:32;;;;;;;5.30;2.00;;;15.30;99.90;;;;;;6220876;23;20219;-84
2022/11/18 10:40:02;;;;;;;5.23;2.17;;;15.30;99.90;;;;;;6217825;23;20392;-83
2022/11/18 10:42:43;;;;;;;5.70;1.97;;;15.20;99.90;;;;;;6220416;23;20428;-84
2022/11/18 10:45:19;;;;;;;7.83;1.90;;;15.30;99.90;;;;;;6221354;23;20396;-83
2022/11/18 10:48:06;;;;;;;5.23;2.10;;;15.30;99.90;;;;;;6222280;23;20417;-82
2022/11/18 10:50:34;;;;;;;9.60;2.17;;;15.40;99.90;;;;;;6192168;23;20443;-84
2022/11/18 10:53:05;;;;;;;5.80;2.33;;;15.30;99.90;;;;;;6221127;23;20379;-83
2022/11/18 10:55:31;;;;;;;3.07;1.50;;;15.20;99.90;;;;;;6195110;23;20378;-83
2022/11/18 10:58:10;;;;;;;11.57;2.40;;;15.10;99.90;;;;;;6196529;23;20420;-84
2022/11/18 11:00:45;;;;;;;6.93;2.27;;;15.20;99.90;;;;;;6221287;23;20392;-83
2022/11/18 11:03:32;;;;;;;4.77;1.57;;;15.50;99.90;;;;;;6195366;23;20493;-84
2022/11/18 11:06:26;;;;;;;6.80;2.70;;;15.90;99.90;;;;;;6221373;23;20392;-83
2022/11/18 11:09:03;;;;;;;6.20;1.73;;;16.90;99.90;;;;;;6220540;23;20375;-84
2022/11/18 11:12:12;;;;;;;6.30;2.00;;;17.50;99.90;;;;;;6229095;23;20460;-83
2022/11/18 11:14:59;;;;;;;7.03;1.80;;;17.50;99.90;;;;;;6211111;23;20486;-84
2022/11/18 11:18:40;;;;;;;8.70;1.90;;;17.40;99.90;;;;;;6225560;23;20370;-84
2022/11/18 11:20:35;;;;;;;6.60;2.13;;;17.00;99.90;;;;;;6215266;23;20442;-83
2022/11/18 11:23:24;;;;;;;5.60;1.77;;;16.60;99.90;;;;;;6218552;23;20431;-83
2022/11/18 11:26:02;;;;;;;4.63;1.47;;;16.20;99.90;;;;;;6219784;23;20380;-83
2022/11/18 11:28:35;;;;;;;8.60;2.20;;;15.80;99.90;;;;;;6217094;23;20359;-83
2022/11/18 11:31:38;;;;;;;10.60;2.33;;;15.70;99.90;;;;;;6217549;23;20419;-82
2022/11/18 11:34:27;;;;;;;9.57;1.70;;;15.60;99.90;;;;;;6218475;23;20360;-83
2022/11/18 11:37:32;;;;;;;8.33;2.60;;;15.30;99.90;;;;;;6219052;23;20361;-82
2022/11/18 11:40:06;;;;;;;7.77;3.47;;;15.10;99.90;;;;;;6217306;23;20484;-83
2022/11/18 11:42:57;;;;;;;7.10;1.77;;;15.00;99.90;;;;;;6217714;23;20716;-83
2022/11/18 11:45:44;;;;;;;4.97;2.87;;;15.00;99.90;;;;;;6193264;23;20380;-84
2022/11/18 11:48:28;;;;;;;4.17;2.13;;;15.10;99.90;;;;;;6219986;23;20421;-83
2022/11/18 11:51:12;;;;;;;6.13;1.93;;;15.10;99.90;;;;;;6218901;23;20399;-82
2022/11/18 11:54:02;;;;;;;5.93;2.00;;;15.20;99.90;;;;;;6218881;23;20863;-82
2022/11/18 11:56:40;;;;;;;7.57;2.10;;;15.50;99.90;;;;;;6193539;23;20712;-83
2022/11/18 11:59:46;;;;;;;8.60;2.20;;;16.00;99.90;;;;;;6217057;23;20359;-83
2022/11/18 12:02:24;;;;;;;9.67;2.00;;;16.40;99.90;;;;;;6218362;23;20426;-83
2022/11/18 12:04:56;;;;;;;3.43;2.03;;;17.00;99.90;;;;;;6214836;23;20411;-83
2022/11/18 12:07:37;;;;;;;7.23;2.10;;;17.30;99.90;;;;;;6217559;23;20364;-83
2022/11/18 12:10:30;;;;;;;6.70;2.20;;;17.70;99.90;;;;;;6216269;23;20772;-83
2022/11/18 12:13:13;;;;;;;6.73;2.70;;;18.30;99.90;;;;;;6198289;23;20404;-83
2022/11/18 12:16:02;;;;;;;5.60;1.93;;;18.80;99.90;;;;;;6219943;23;20367;-84
2022/11/18 12:18:54;;;;;;;5.30;2.43;;;19.00;99.90;;;;;;6220185;23;20760;-83
2022/11/18 12:21:45;;;;;;;7.87;3.33;;;19.10;99.90;;;;;;6194517;23;20414;-83
2022/11/18 12:24:24;;;;;;;6.47;2.30;;;19.20;99.90;;;;;;6220515;23;20454;-84
2022/11/18 12:26:50;;;;;;;7.70;2.40;;;19.20;99.90;;;;;;6221574;23;20364;-84
2022/11/18 12:29:18;;;;;;;6.73;2.93;;;19.20;99.90;;;;;;6218939;23;20382;-81
2022/11/18 12:31:52;;;;;;;4.40;1.87;;;18.80;99.90;;;;;;6220022;23;20481;-83
2022/11/18 12:34:42;;;;;;;7.30;2.50;;;18.30;99.90;;;;;;6218191;23;20451;-84
2022/11/18 12:37:33;;;;;;;7.57;2.37;;;18.00;99.90;;;;;;6219161;23;20442;-84
2022/11/18 12:40:02;;;;;;;7.70;2.03;;;17.70;99.90;;;;;;6191408;23;20885;-84
2022/11/18 12:45:39;;;;;;;6.40;2.27;;;17.70;99.90;;;;;;6220619;23;20862;-81
2022/11/18 12:48:32;;;;;;;7.50;2.10;;;17.80;99.90;;;;;;6217561;23;20380;-84
2022/11/18 12:51:01;;;;;;;6.90;2.40;;;17.70;99.90;;;;;;6219815;23;20388;-83
2022/11/18 12:53:59;;;;;;;;;;;;;;;;;;;;;
2022/11/18 12:56:50;;;;;;;9.53;2.23;;;17.60;99.90;;;;;;6216486;23;20408;-85
2022/11/18 12:59:27;;;;;;;6.83;2.13;;;17.40;99.90;;;;;;6204324;23;20470;-84
2022/11/18 13:02:20;;;;;;;8.40;2.93;;;17.20;99.90;;;;;;6219270;23;20917;-83
2022/11/18 13:08:13;;;;;;;5.80;1.73;;;17.10;99.90;;;;;;6211332;23;20391;-85
2022/11/18 13:11:43;;;;;;;5.60;2.33;;;17.60;99.90;;;;;;6191446;23;20748;-84
2022/11/18 13:13:36;;;;;;;6.87;2.07;;;17.50;99.90;;;;;;6219741;23;20422;-84
2022/11/18 13:18:57;;;;;;;10.70;2.50;;;17.20;99.90;;;;;;6220733;23;20172;-83
2022/11/18 13:24:19;;;;;;;6.00;2.13;;;16.60;99.90;;;;;;6218699;23;20154;-84
2022/11/18 13:26:52;;;;;;;5.30;2.20;;;16.30;99.90;;;;;;6192202;23;20376;-84
2022/11/18 13:29:44;;;;;;;7.50;3.50;;;16.10;99.90;;;;;;6218553;23;20695;-84
2022/11/18 13:32:28;;;;;;;11.53;2.67;;;15.90;99.90;;;;;;6216793;23;20381;-84
2022/11/18 13:35:06;;;;;;;7.70;2.23;;;15.80;99.90;;;;;;6193726;23;20373;-85
2022/11/18 13:37:34;;;;;;;7.70;2.67;;;15.70;99.90;;;;;;6220401;23;20364;-84
2022/11/18 13:40:00;;;;;;;5.93;2.40;;;15.50;99.90;;;;;;6217873;23;20368;-83
2022/11/18 13:45:37;;;;;;;5.40;2.30;;;15.50;99.90;;;;;;6186437;23;20184;-84
2022/11/18 13:48:29;;;;;;;5.50;2.10;;;15.50;99.90;;;;;;6221737;23;20411;-84
2022/11/18 13:51:01;;;;;;;7.37;2.00;;;15.60;99.90;;;;;;6193818;23;20412;-84
2022/11/18 13:53:27;;;;;;;9.33;2.40;;;15.60;99.90;;;;;;6219397;23;20367;-84
2022/11/18 13:56:13;;;;;;;7.93;2.43;;;15.60;99.90;;;;;;6219231;23;20390;-82
2022/11/18 13:58:50;;;;;;;8.80;1.70;;;15.70;99.90;;;;;;6191929;23;20727;-83
2022/11/18 14:01:24;;;;;;;8.50;2.43;;;15.70;99.90;;;;;;6191886;23;20432;-85
2022/11/18 14:04:02;;;;;;;4.23;2.40;;;15.70;99.90;;;;;;6218849;23;20427;-84
2022/11/18 14:06:33;;;;;;;8.83;2.20;;;15.60;99.90;;;;;;6219621;23;20835;-84
2022/11/18 14:09:30;;;;;;;8.43;2.70;;;15.50;99.90;;;;;;6219742;23;20365;-85
2022/11/18 14:12:05;;;;;;;6.70;2.93;;;15.40;99.90;;;;;;6144137;23;20408;-84
2022/11/18 14:14:36;;;;;;;7.87;3.07;;;15.40;99.90;;;;;;6217769;23;20404;-85
2022/11/18 14:17:24;;;;;;;6.53;1.90;;;15.40;99.90;;;;;;6218466;23;20380;-84
2022/11/18 14:19:52;;;;;;;7.30;1.90;;;15.40;99.90;;;;;;6218460;23;20380;-85
2022/11/18 14:22:19;;;;;;;5.93;2.20;;;15.30;99.90;;;;;;6219975;23;20427;-84
2022/11/18 14:25:14;;;;;;;8.03;2.23;;;15.20;99.90;;;;;;6219536;23;20380;-85
2022/11/18 14:27:49;;;;;;;7.67;2.97;;;15.20;99.90;;;;;;6192692;23;20377;-83
2022/11/18 14:30:34;;;;;;;4.00;1.93;;;15.10;99.90;;;;;;6218730;23;20473;-83
2022/11/18 14:33:20;;;;;;;9.23;2.60;;;15.10;99.90;;;;;;6219256;23;20380;-84